Time;durP1;ratioP1;P1;durP2;ratioP2;P2;SDS_P1;SDS_P2;PMS_P1;PMS_P2;Temp;Humidity;BMP_temperature;BMP_pressure;BME280_temperature;BME280_humidity;BME280_pressure;Samples;Min_cycle;Max_cycle;Signal;HPM_P1;HPM_P2
2022/04/21 00:00:16;;;;;;;78.68;52.33;;;18.60;51.80;;;;;;4945494;28;89758;-40
2022/04/21 00:02:43;;;;;;;79.93;52.40;;;18.60;51.80;;;;;;4949751;28;89586;-40
2022/04/21 00:05:10;;;;;;;78.30;52.40;;;18.60;51.80;;;;;;4937481;28;90339;-41
2022/04/21 00:07:35;;;;;;;78.07;52.45;;;18.60;51.80;;;;;;4944467;28;92231;-34
2022/04/21 00:10:05;;;;;;;78.07;52.15;;;18.60;51.80;;;;;;4953115;28;92295;-37
2022/04/21 00:12:31;;;;;;;78.32;52.42;;;18.60;51.80;;;;;;4944929;28;91087;-34
2022/04/21 00:14:56;;;;;;;78.68;52.35;;;18.60;51.80;;;;;;4946427;28;91592;-37
2022/04/21 00:17:22;;;;;;;77.18;52.00;;;18.60;51.90;;;;;;4944553;28;90764;-36
2022/04/21 00:19:48;;;;;;;78.15;52.47;;;18.60;51.80;;;;;;4947835;28;90020;-38
2022/04/21 00:24:58;;;;;;;78.35;52.40;;;18.50;51.80;;;;;;4950502;28;89369;-40
2022/04/21 00:27:24;;;;;;;77.45;52.13;;;18.50;51.80;;;;;;4940159;28;90797;-39
2022/04/21 00:29:49;;;;;;;79.22;52.47;;;18.50;51.80;;;;;;4939591;28;90996;-38
2022/04/21 00:32:15;;;;;;;77.40;52.17;;;18.50;51.90;;;;;;4941232;28;91860;-36
2022/04/21 00:34:41;;;;;;;80.18;52.50;;;18.50;51.80;;;;;;4943314;28;90776;-36
2022/04/21 00:37:06;;;;;;;81.43;52.53;;;18.50;51.90;;;;;;4943223;28;92974;-38
2022/04/21 00:39:32;;;;;;;78.30;52.03;;;18.50;52.50;;;;;;4943831;28;90281;-36
2022/04/21 00:41:59;;;;;;;77.22;52.35;;;18.50;51.90;;;;;;4945119;28;90043;-39
2022/04/21 00:44:26;;;;;;;77.80;52.33;;;18.50;51.90;;;;;;4951072;28;91558;-37
2022/04/21 00:46:57;;;;;;;76.80;51.97;;;18.50;51.80;;;;;;4946765;28;90696;-37
2022/04/21 00:49:23;;;;;;;;;;;18.50;51.80;;;;;;4943047;28;91009;-36
2022/04/21 00:51:51;;;;;;;78.22;51.90;;;18.40;51.80;;;;;;4939898;28;89999;-34
2022/04/21 00:54:17;;;;;;;78.63;52.08;;;18.40;51.90;;;;;;4943263;28;89925;-36
2022/04/21 00:56:44;;;;;;;77.85;52.42;;;18.40;51.80;;;;;;4945742;28;93030;-40
2022/04/21 00:59:11;;;;;;;76.72;51.92;;;18.40;51.90;;;;;;4950117;28;96400;-39
2022/04/21 01:04:24;;;;;;;77.05;51.50;;;18.40;51.90;;;;;;4941845;28;91195;-38
2022/04/21 01:06:54;;;;;;;77.47;52.17;;;18.40;51.90;;;;;;4945223;28;91032;-37
2022/04/21 01:09:20;;;;;;;78.15;52.45;;;18.40;51.80;;;;;;4949171;28;90012;-35
2022/04/21 01:11:49;;;;;;;78.20;52.28;;;18.40;51.90;;;;;;4943885;28;92748;-39
2022/04/21 01:14:16;;;;;;;77.88;51.90;;;18.40;51.90;;;;;;4952823;28;88752;-37
2022/04/21 01:16:41;;;;;;;77.30;51.90;;;18.40;51.90;;;;;;4943245;28;96000;-40
2022/04/21 01:19:07;;;;;;;77.00;51.95;;;18.30;51.80;;;;;;4942849;28;94192;-34
2022/04/21 01:21:33;;;;;;;79.75;51.95;;;18.30;51.90;;;;;;4946228;28;93786;-38
2022/04/21 01:23:59;;;;;;;77.45;51.95;;;18.30;51.90;;;;;;4946172;28;93359;-36
2022/04/21 01:26:34;;;;;;;76.80;51.90;;;18.30;52.00;;;;;;4944504;28;92116;-37
2022/04/21 01:29:05;;;;;;;76.22;51.65;;;18.20;51.90;;;;;;4953977;28;89912;-37
2022/04/21 01:31:31;;;;;;;76.13;51.83;;;18.30;52.00;;;;;;4939386;28;90123;-37
2022/04/21 01:33:57;;;;;;;77.35;52.10;;;18.30;51.90;;;;;;4947495;28;91095;-41
2022/04/21 01:36:23;;;;;;;76.35;51.60;;;18.20;51.90;;;;;;4938004;28;90209;-38
2022/04/21 01:41:33;;;;;;;77.45;51.83;;;18.20;51.90;;;;;;4945587;28;89890;-37
2022/04/21 01:43:58;;;;;;;76.38;51.67;;;18.20;52.00;;;;;;4941330;28;90571;-36
2022/04/21 01:46:24;;;;;;;77.35;51.40;;;18.20;52.00;;;;;;4946718;28;91222;-38
2022/04/21 01:48:49;;;;;;;77.55;51.60;;;18.20;52.00;;;;;;4944355;28;93184;-36
2022/04/21 01:51:15;;;;;;;75.78;51.53;;;18.20;52.00;;;;;;4942374;28;92857;-36
2022/04/21 01:53:41;;;;;;;76.40;51.78;;;18.20;52.00;;;;;;4945652;28;90595;-36
2022/04/21 01:56:08;;;;;;;77.03;51.97;;;18.20;52.00;;;;;;4938947;28;91068;-35
2022/04/21 01:58:33;;;;;;;77.72;52.10;;;18.20;52.00;;;;;;4946188;28;90919;-36
2022/04/21 02:00:59;;;;;;;76.75;51.72;;;18.20;52.00;;;;;;4944274;28;95311;-39
2022/04/21 02:03:25;;;;;;;76.38;51.78;;;18.10;52.00;;;;;;4940959;28;90029;-37
2022/04/21 02:05:50;;;;;;;76.80;51.45;;;18.10;52.00;;;;;;4943999;28;90057;-36
2022/04/21 02:08:16;;;;;;;76.57;51.42;;;18.10;52.00;;;;;;4943383;28;89966;-38
2022/04/21 02:10:42;;;;;;;80.20;52.45;;;18.10;52.00;;;;;;4945508;28;92548;-40
2022/04/21 02:13:07;;;;;;;77.22;51.65;;;18.10;52.00;;;;;;4947779;28;90139;-37
2022/04/21 02:15:33;;;;;;;77.00;51.58;;;18.10;52.00;;;;;;4946434;28;90341;-38
2022/04/21 02:18:01;;;;;;;75.72;51.42;;;18.10;52.00;;;;;;4946642;28;89934;-38
2022/04/21 02:20:27;;;;;;;76.47;51.63;;;18.10;52.10;;;;;;4943071;28;90042;-39
2022/04/21 02:22:53;;;;;;;76.72;51.65;;;18.10;52.10;;;;;;4950045;28;91043;-37
2022/04/21 02:25:18;;;;;;;76.95;51.35;;;18.00;52.00;;;;;;4947036;28;90505;-37
2022/04/21 02:27:46;;;;;;;77.30;51.88;;;18.10;52.00;;;;;;4943572;28;89544;-34
2022/04/21 02:30:14;;;;;;;76.10;51.63;;;18.10;52.10;;;;;;4946882;28;96726;-37
2022/04/21 02:32:40;;;;;;;76.18;51.15;;;18.00;52.10;;;;;;4937678;28;90580;-38
2022/04/21 02:35:07;;;;;;;75.65;51.35;;;18.00;52.10;;;;;;4931904;28;91506;-39
2022/04/21 02:37:43;;;;;;;76.10;51.67;;;18.00;52.00;;;;;;4939931;28;90822;-39
2022/04/21 02:40:09;;;;;;;75.78;51.63;;;18.00;52.00;;;;;;4949971;28;89457;-36
2022/04/21 02:42:38;;;;;;;76.25;51.53;;;18.00;52.10;;;;;;4954015;28;90240;-38
2022/04/21 02:45:05;;;;;;;76.53;51.10;;;18.00;52.10;;;;;;4950063;28;90061;-38
2022/04/21 02:47:31;;;;;;;75.68;51.17;;;18.00;52.10;;;;;;4949189;28;89777;-41
2022/04/21 02:49:57;;;;;;;75.70;51.55;;;18.00;52.10;;;;;;4944694;28;90183;-39
2022/04/21 02:52:23;;;;;;;75.47;51.33;;;18.00;52.10;;;;;;4951424;28;88961;-36
2022/04/21 02:57:33;;;;;;;76.50;51.53;;;18.00;52.10;;;;;;4948346;28;90423;-37
2022/04/21 03:00:05;;;;;;;76.25;51.33;;;17.90;52.10;;;;;;4948069;28;90813;-37
2022/04/21 03:02:31;;;;;;;76.03;51.50;;;18.00;52.20;;;;;;4951277;28;91846;-38
2022/04/21 03:04:56;;;;;;;75.65;51.60;;;17.90;52.10;;;;;;4939708;28;91439;-38
2022/04/21 03:07:22;;;;;;;75.18;51.20;;;17.90;52.10;;;;;;4938582;28;90427;-38
2022/04/21 03:09:49;;;;;;;75.53;51.13;;;17.90;52.20;;;;;;4937400;28;89857;-38
2022/04/21 03:12:15;;;;;;;75.20;51.38;;;17.90;52.10;;;;;;4953347;28;91635;-37
2022/04/21 03:14:41;;;;;;;75.13;51.13;;;17.90;52.20;;;;;;4947203;28;96477;-40
2022/04/21 03:17:09;;;;;;;75.53;51.22;;;17.90;52.20;;;;;;4950331;28;89994;-39
2022/04/21 03:19:36;;;;;;;76.00;51.42;;;17.90;52.20;;;;;;4953891;28;89939;-36
2022/04/21 03:24:47;;;;;;;75.95;51.30;;;17.90;52.20;;;;;;4945193;28;91013;-38
2022/04/21 03:27:14;;;;;;;75.82;51.13;;;17.90;52.20;;;;;;4954363;28;93123;-37
2022/04/21 03:29:40;;;;;;;75.10;51.25;;;17.80;52.20;;;;;;4950545;28;89790;-39
2022/04/21 03:32:11;;;;;;;75.72;51.30;;;17.80;52.20;;;;;;4960857;28;89985;-35
2022/04/21 03:34:41;;;;;;;75.05;51.28;;;17.90;52.20;;;;;;4940554;28;90040;-36
2022/04/21 03:37:11;;;;;;;76.28;51.22;;;17.80;52.20;;;;;;4943839;28;89848;-39
2022/04/21 03:39:38;;;;;;;75.07;51.20;;;17.80;52.20;;;;;;4944759;28;90003;-38
2022/04/21 03:42:05;;;;;;;75.43;51.13;;;17.80;52.20;;;;;;4951813;28;89356;-38
2022/04/21 03:44:31;;;;;;;74.53;50.85;;;17.80;52.20;;;;;;4946357;28;90697;-40
2022/04/21 03:46:58;;;;;;;75.53;51.25;;;17.80;52.20;;;;;;4948943;28;90026;-38
2022/04/21 03:49:28;;;;;;;76.18;51.35;;;17.70;52.10;;;;;;4942107;28;91959;-36
2022/04/21 03:51:54;;;;;;;76.13;51.55;;;17.70;52.20;;;;;;4944336;28;90300;-34
2022/04/21 03:54:20;;;;;;;74.32;50.72;;;17.70;52.20;;;;;;4945688;28;90917;-37
2022/04/21 03:56:45;;;;;;;74.95;50.97;;;17.70;52.30;;;;;;4951909;28;90441;-40
2022/04/21 03:59:11;;;;;;;76.18;51.22;;;17.70;52.30;;;;;;4941548;28;90326;-35
2022/04/21 04:01:36;;;;;;;75.80;51.42;;;17.70;52.20;;;;;;4952652;28;89811;-34
2022/04/21 04:04:02;;;;;;;76.53;51.22;;;17.70;52.40;;;;;;4939427;28;89903;-39
2022/04/21 04:11:56;;;;;;;75.88;51.38;;;17.60;52.30;;;;;;4948807;28;90121;-40
2022/04/21 04:14:22;;;;;;;75.75;51.53;;;17.70;52.40;;;;;;4941159;28;90504;-38
2022/04/21 04:16:48;;;;;;;75.13;51.15;;;17.70;52.40;;;;;;4936177;28;90701;-40
2022/04/21 04:19:14;;;;;;;74.75;50.83;;;17.70;52.40;;;;;;4949095;28;89932;-36
2022/04/21 04:21:39;;;;;;;76.68;51.33;;;17.60;52.40;;;;;;4948942;28;89906;-37
2022/04/21 04:24:05;;;;;;;74.88;51.13;;;17.70;52.40;;;;;;4942510;28;90303;-40
2022/04/21 04:26:35;;;;;;;75.90;51.15;;;17.60;52.50;;;;;;4943311;28;91120;-39
2022/04/21 04:29:03;;;;;;;75.22;51.38;;;17.60;52.50;;;;;;4942626;28;89845;-40
2022/04/21 04:31:28;;;;;;;75.40;51.33;;;17.60;52.50;;;;;;4940030;28;89490;-39
2022/04/21 04:33:54;;;;;;;79.35;51.25;;;17.60;52.40;;;;;;4944786;28;90157;-37
2022/04/21 04:36:20;;;;;;;74.57;50.90;;;17.60;52.50;;;;;;4934131;28;90710;-37
2022/04/21 04:38:48;;;;;;;76.00;51.00;;;17.60;52.50;;;;;;4945425;28;91843;-37
2022/04/21 04:43:58;;;;;;;74.60;51.05;;;17.60;52.50;;;;;;4940461;28;90894;-40
2022/04/21 04:46:37;;;;;;;75.38;50.95;;;17.50;52.50;;;;;;4946184;28;92014;-40
2022/04/21 04:49:08;;;;;;;74.85;50.88;;;17.50;52.50;;;;;;4945033;28;89661;-40
2022/04/21 04:51:35;;;;;;;77.28;51.28;;;17.50;52.50;;;;;;4948478;28;90203;-38
2022/04/21 04:54:01;;;;;;;75.88;51.50;;;17.50;52.50;;;;;;4942273;28;90070;-38
2022/04/21 04:56:27;;;;;;;75.68;51.35;;;17.50;52.50;;;;;;4941082;28;92587;-38
2022/04/21 04:58:53;;;;;;;75.22;51.05;;;17.50;52.50;;;;;;4946273;28;91887;-37
2022/04/21 05:01:27;;;;;;;75.03;51.05;;;17.50;52.50;;;;;;4938695;28;92483;-36
2022/04/21 05:04:00;;;;;;;74.88;50.97;;;17.50;52.50;;;;;;4946203;28;91301;-41
2022/04/21 05:06:26;;;;;;;75.82;51.00;;;17.40;52.50;;;;;;4939963;28;90651;-39
2022/04/21 05:08:51;;;;;;;75.22;51.17;;;17.50;52.60;;;;;;4945672;28;90941;-37
2022/04/21 05:11:17;;;;;;;76.63;51.40;;;17.50;52.60;;;;;;4947385;28;89855;-38
2022/04/21 05:13:44;;;;;;;77.03;51.28;;;17.50;52.60;;;;;;4954795;28;90441;-36
2022/04/21 05:16:10;;;;;;;75.75;50.83;;;17.50;52.60;;;;;;4938456;28;89896;-39
2022/04/21 05:18:35;;;;;;;74.35;50.95;;;17.40;52.70;;;;;;4950244;28;89933;-36
2022/04/21 05:21:01;;;;;;;76.45;51.50;;;17.50;52.80;;;;;;4937359;28;89713;-40
2022/04/21 05:23:34;;;;;;;75.90;51.03;;;17.50;52.80;;;;;;4930520;28;90363;-37
2022/04/21 05:26:00;;;;;;;75.43;51.30;;;17.50;52.70;;;;;;4930035;28;93000;-38
2022/04/21 05:28:26;;;;;;;75.80;51.65;;;17.40;52.70;;;;;;4939224;28;91033;-37
2022/04/21 05:30:55;;;;;;;75.68;51.05;;;17.40;52.90;;;;;;4937522;28;89694;-41
2022/04/21 05:33:24;;;;;;;81.13;51.42;;;17.50;53.00;;;;;;4947332;28;90479;-36
2022/04/21 05:35:50;;;;;;;76.68;51.08;;;17.40;52.90;;;;;;4937579;28;92192;-38
2022/04/21 05:38:16;;;;;;;76.47;51.35;;;17.40;53.10;;;;;;4933575;28;91950;-39
2022/04/21 05:40:45;;;;;;;76.80;51.50;;;17.40;53.20;;;;;;4938014;28;89992;-39
2022/04/21 05:43:14;;;;;;;77.15;51.58;;;17.40;53.20;;;;;;4937464;28;90709;-38
2022/04/21 05:45:40;;;;;;;77.10;51.50;;;17.40;53.20;;;;;;4948436;28;90312;-40
2022/04/21 05:48:06;;;;;;;75.00;51.00;;;17.40;53.40;;;;;;4949374;28;89731;-40
2022/04/21 05:50:32;;;;;;;79.65;51.55;;;17.40;53.30;;;;;;4946991;28;91536;-37
2022/04/21 05:53:03;;;;;;;77.90;51.55;;;17.40;53.40;;;;;;4945077;28;91277;-38
2022/04/21 05:55:29;;;;;;;78.20;51.25;;;17.40;53.30;;;;;;4944591;28;90764;-39
2022/04/21 05:57:55;;;;;;;79.13;51.38;;;17.50;53.40;;;;;;4940345;28;90183;-38
2022/04/21 06:00:21;;;;;;;76.90;51.35;;;17.40;53.30;;;;;;4941910;28;92311;-39
2022/04/21 06:02:47;;;;;;;79.85;51.42;;;17.40;53.20;;;;;;4947647;28;90290;-37
2022/04/21 06:05:12;;;;;;;78.47;51.53;;;17.40;53.30;;;;;;4947187;28;90081;-37
2022/04/21 06:07:39;;;;;;;80.30;51.28;;;17.50;53.30;;;;;;4937635;28;89775;-41
2022/04/21 06:10:05;;;;;;;78.78;51.40;;;17.40;53.20;;;;;;4946643;28;89662;-36
2022/04/21 06:12:30;;;;;;;77.57;51.22;;;17.50;53.20;;;;;;4949784;28;90246;-38
2022/04/21 06:14:56;;;;;;;79.53;51.67;;;17.40;53.10;;;;;;4947818;28;89928;-40
2022/04/21 06:17:22;;;;;;;78.70;51.50;;;17.40;53.10;;;;;;4947626;28;92132;-38
2022/04/21 06:19:48;;;;;;;77.68;51.35;;;17.50;53.20;;;;;;4950736;28;89675;-34
2022/04/21 06:22:14;;;;;;;76.78;51.25;;;17.50;53.20;;;;;;4948494;28;90342;-38
2022/04/21 06:24:39;;;;;;;76.47;51.20;;;17.40;53.10;;;;;;4950131;28;90458;-36
2022/04/21 06:27:05;;;;;;;77.88;51.20;;;17.40;53.10;;;;;;4947176;28;89861;-38
2022/04/21 06:29:31;;;;;;;76.70;51.35;;;17.50;53.10;;;;;;4954393;28;89539;-38
2022/04/21 06:31:56;;;;;;;76.32;51.13;;;17.50;52.90;;;;;;4945196;28;91144;-39
2022/04/21 06:34:25;;;;;;;78.35;51.65;;;17.50;53.10;;;;;;4951216;28;89911;-39
2022/04/21 06:36:50;;;;;;;76.45;51.45;;;17.50;53.00;;;;;;4947037;28;89985;-39
2022/04/21 06:39:16;;;;;;;78.60;51.35;;;17.50;53.00;;;;;;4947487;28;90510;-35
2022/04/21 06:41:42;;;;;;;77.60;51.53;;;17.50;53.00;;;;;;4946853;28;90431;-37
2022/04/21 06:49:36;;;;;;;75.68;51.15;;;17.60;53.10;;;;;;4952788;28;89788;-39
2022/04/21 06:52:02;;;;;;;78.63;51.15;;;17.50;52.90;;;;;;4943082;28;90742;-39
2022/04/21 06:54:28;;;;;;;76.47;51.63;;;17.50;52.90;;;;;;4953787;28;90109;-35
2022/04/21 06:56:54;;;;;;;76.88;51.20;;;17.50;52.90;;;;;;4950560;28;89552;-39
2022/04/21 06:59:19;;;;;;;77.68;51.22;;;17.50;52.90;;;;;;4950278;28;88963;-37
2022/04/21 07:01:48;;;;;;;75.63;51.10;;;17.60;52.90;;;;;;4943445;28;93454;-36
2022/04/21 07:04:14;;;;;;;76.80;51.10;;;17.60;52.90;;;;;;4940188;28;89785;-39
2022/04/21 07:06:40;;;;;;;76.25;51.75;;;17.60;52.80;;;;;;4944992;28;91137;-37
2022/04/21 07:09:06;;;;;;;77.95;51.38;;;17.60;52.90;;;;;;4940820;28;90058;-37
2022/04/21 07:11:32;;;;;;;82.25;51.10;;;17.60;52.90;;;;;;4946634;28;92281;-38
2022/04/21 07:13:57;;;;;;;76.82;51.22;;;17.70;53.00;;;;;;4951832;28;89943;-38
2022/04/21 07:16:23;;;;;;;77.90;51.08;;;17.60;52.90;;;;;;4948154;28;89952;-40
2022/04/21 07:18:49;;;;;;;79.25;51.25;;;17.60;52.90;;;;;;4952734;28;89723;-37
2022/04/21 07:21:15;;;;;;;78.32;51.25;;;17.60;52.90;;;;;;4950327;28;90546;-37
2022/04/21 07:23:41;;;;;;;76.68;51.22;;;17.70;53.00;;;;;;4951570;28;89762;-37
2022/04/21 07:26:07;;;;;;;76.28;51.30;;;17.70;53.00;;;;;;4948487;28;89882;-38
2022/04/21 07:28:33;;;;;;;79.75;51.25;;;17.70;53.00;;;;;;4947860;28;93489;-41
2022/04/21 07:30:59;;;;;;;76.97;51.08;;;17.70;53.00;;;;;;4942407;28;92197;-40
2022/04/21 07:33:24;;;;;;;76.25;51.17;;;17.70;53.10;;;;;;4956889;28;90720;-39
2022/04/21 07:35:50;;;;;;;77.78;51.17;;;17.70;53.00;;;;;;4948526;28;89939;-37
2022/04/21 07:38:16;;;;;;;78.28;51.53;;;17.70;53.00;;;;;;4942577;28;92000;-39
2022/04/21 07:40:42;;;;;;;77.25;51.50;;;17.70;53.10;;;;;;4943215;28;91952;-41
2022/04/21 07:43:08;;;;;;;78.10;51.30;;;17.70;53.00;;;;;;4942670;28;95938;-37
2022/04/21 07:45:44;;;;;;;76.68;51.22;;;17.80;53.00;;;;;;4953938;28;90006;-38
2022/04/21 07:48:10;;;;;;;78.07;51.40;;;17.80;53.10;;;;;;4957258;28;89321;-41
2022/04/21 07:50:36;;;;;;;78.15;51.55;;;17.80;53.10;;;;;;4951850;28;92465;-37
2022/04/21 07:53:14;;;;;;;77.47;51.22;;;17.80;53.20;;;;;;4941195;28;99027;-35
2022/04/21 07:55:46;;;;;;;79.05;51.38;;;17.80;53.10;;;;;;4948167;28;90913;-38
2022/04/21 07:58:12;;;;;;;78.10;51.53;;;17.80;53.10;;;;;;4950245;28;90472;-38
2022/04/21 08:00:38;;;;;;;76.57;51.25;;;17.80;53.00;;;;;;4951199;28;89760;-36
2022/04/21 08:03:05;;;;;;;77.35;51.45;;;17.80;52.90;;;;;;4946884;28;89523;-40
2022/04/21 08:05:32;;;;;;;79.72;51.22;;;17.80;53.00;;;;;;4947564;28;89568;-40
2022/04/21 08:07:58;;;;;;;78.88;51.25;;;17.90;53.10;;;;;;4937546;28;89992;-39
2022/04/21 08:10:30;;;;;;;77.72;51.20;;;17.90;53.00;;;;;;4939309;28;90149;-41
2022/04/21 08:12:58;;;;;;;81.60;51.65;;;17.90;53.00;;;;;;4940083;28;90455;-36
2022/04/21 08:15:28;;;;;;;77.32;51.45;;;17.90;53.00;;;;;;4946071;28;90029;-38
2022/04/21 08:17:56;;;;;;;76.82;51.33;;;17.90;53.00;;;;;;4954701;28;89860;-37
2022/04/21 08:20:24;;;;;;;78.13;51.47;;;18.00;53.00;;;;;;4953342;28;91250;-40
2022/04/21 08:22:50;;;;;;;77.60;51.08;;;17.90;52.90;;;;;;4932935;28;90495;-36
2022/04/21 08:33:29;;;;;;;76.90;51.20;;;18.00;52.90;;;;;;4933209;28;90367;-36
2022/04/21 08:35:59;;;;;;;77.38;51.25;;;18.00;52.80;;;;;;4935144;28;91600;-38
2022/04/21 08:38:27;;;;;;;78.13;51.45;;;18.00;52.80;;;;;;4924683;28;89603;-39
2022/04/21 08:40:55;;;;;;;78.15;51.78;;;18.10;52.90;;;;;;4933678;28;91692;-35
2022/04/21 08:43:23;;;;;;;79.88;51.47;;;18.00;52.90;;;;;;4926518;28;90619;-39
2022/04/21 08:45:49;;;;;;;78.57;51.33;;;18.10;52.90;;;;;;4929975;28;97369;-37
2022/04/21 08:48:18;;;;;;;78.50;51.60;;;18.10;53.00;;;;;;4934476;28;91330;-40
2022/04/21 08:50:45;;;;;;;78.80;51.60;;;18.10;53.00;;;;;;4944016;28;90897;-36
2022/04/21 08:53:13;;;;;;;80.82;51.35;;;18.10;53.00;;;;;;4928771;28;90616;-35
2022/04/21 08:55:39;;;;;;;79.75;51.63;;;18.10;53.00;;;;;;4939931;28;89863;-38
2022/04/21 08:58:05;;;;;;;78.60;51.75;;;18.20;53.10;;;;;;4936093;28;94194;-35
2022/04/21 09:00:34;;;;;;;79.13;51.63;;;18.20;53.00;;;;;;4937587;28;90266;-39
2022/04/21 09:03:03;;;;;;;78.38;51.75;;;18.20;52.90;;;;;;4934424;28;89555;-36
2022/04/21 09:05:29;;;;;;;77.47;51.70;;;18.20;52.80;;;;;;4938068;28;91035;-41
2022/04/21 09:07:57;;;;;;;79.35;52.38;;;18.20;52.80;;;;;;4926090;28;91895;-39
2022/04/21 09:10:24;;;;;;;80.18;51.92;;;18.20;52.70;;;;;;4928224;28;93268;-40
2022/04/21 09:12:52;;;;;;;81.03;51.83;;;18.20;53.30;;;;;;4934948;28;91726;-36
2022/04/21 09:15:20;;;;;;;82.35;51.90;;;18.20;52.60;;;;;;4931255;28;97217;-36
2022/04/21 09:17:58;;;;;;;79.72;52.00;;;18.30;52.50;;;;;;4940322;28;90552;-36
2022/04/21 09:20:27;;;;;;;80.03;52.05;;;18.30;52.50;;;;;;4937680;28;92442;-37
2022/04/21 09:22:57;;;;;;;79.68;52.13;;;18.30;52.50;;;;;;4930845;28;90558;-37
2022/04/21 09:25:26;;;;;;;81.18;52.25;;;18.30;52.40;;;;;;4930343;28;90277;-38
2022/04/21 09:27:52;;;;;;;80.38;52.10;;;18.30;52.40;;;;;;4933439;28;90682;-43
2022/04/21 09:30:18;;;;;;;80.57;52.28;;;18.30;52.40;;;;;;4937060;28;94119;-37
2022/04/21 09:32:52;;;;;;;80.68;52.60;;;18.30;52.40;;;;;;4935893;28;90613;-41
2022/04/21 09:35:18;;;;;;;81.13;52.30;;;18.30;52.40;;;;;;4932528;28;91542;-40
2022/04/21 09:37:48;;;;;;;79.93;52.30;;;18.30;52.50;;;;;;4926066;28;90928;-39
2022/04/21 09:40:19;;;;;;;81.22;52.10;;;18.40;52.50;;;;;;4929686;28;90807;-37
2022/04/21 09:42:54;;;;;;;81.53;52.22;;;18.40;52.40;;;;;;4937604;28;90322;-40
2022/04/21 09:48:16;;;;;;;93.00;52.45;;;18.50;52.20;;;;;;4930408;28;90348;-38
2022/04/21 09:50:42;;;;;;;82.47;52.28;;;18.50;52.20;;;;;;4932575;28;90215;-40
2022/04/21 09:53:08;;;;;;;87.30;53.05;;;18.60;52.10;;;;;;4925473;28;92919;-42
2022/04/21 09:55:34;;;;;;;83.10;52.78;;;18.60;52.50;;;;;;4930135;28;90988;-38
2022/04/21 09:58:05;;;;;;;82.90;52.80;;;18.60;52.60;;;;;;4923623;28;91463;-38
2022/04/21 10:00:31;;;;;;;84.78;53.30;;;18.60;52.80;;;;;;4931576;28;91171;-40
2022/04/21 10:02:59;;;;;;;88.78;53.80;;;18.60;52.70;;;;;;4937568;28;90007;-41
2022/04/21 10:05:26;;;;;;;86.05;53.17;;;18.70;53.10;;;;;;4924623;28;90085;-40
2022/04/21 10:07:53;;;;;;;84.47;53.28;;;18.70;53.20;;;;;;4921061;28;89926;-39
2022/04/21 10:10:19;;;;;;;85.50;53.42;;;18.70;53.10;;;;;;4921969;28;90388;-42
2022/04/21 10:12:46;;;;;;;88.10;53.55;;;18.80;53.20;;;;;;4932083;28;89988;-37
2022/04/21 10:15:12;;;;;;;86.95;53.50;;;18.80;53.20;;;;;;4940147;28;90159;-38
2022/04/21 10:17:37;;;;;;;92.70;53.78;;;18.80;53.10;;;;;;4943028;28;89884;-36
2022/04/21 10:20:04;;;;;;;85.72;53.50;;;18.80;53.00;;;;;;4937284;28;90145;-42
2022/04/21 10:22:33;;;;;;;87.32;54.03;;;18.80;52.90;;;;;;4942437;28;92616;-37
2022/04/21 10:25:01;;;;;;;84.97;53.80;;;18.80;53.00;;;;;;4939703;28;93342;-35
2022/04/21 10:27:37;;;;;;;88.45;53.65;;;18.80;53.10;;;;;;4942140;28;89938;-40
2022/04/21 10:30:21;;;;;;;86.45;54.17;;;18.90;53.10;;;;;;4934258;28;91050;-37
2022/04/21 10:32:49;;;;;;;86.35;54.53;;;18.90;53.10;;;;;;4944362;28;93459;-41
2022/04/21 10:35:24;;;;;;;89.60;54.50;;;18.90;53.20;;;;;;4938721;28;92202;-40
2022/04/21 10:38:14;;;;;;;87.03;54.13;;;18.90;53.20;;;;;;4933144;28;90892;-37
2022/04/21 10:41:03;;;;;;;88.47;54.38;;;18.90;53.20;;;;;;4934696;28;90071;-40
2022/04/21 10:43:50;;;;;;;84.70;54.38;;;19.00;53.30;;;;;;4939782;28;90119;-40
2022/04/21 10:46:24;;;;;;;89.60;54.92;;;19.00;53.30;;;;;;4941105;28;92835;-37
2022/04/21 10:48:50;;;;;;;89.10;54.67;;;19.00;53.30;;;;;;4941261;28;89665;-38
2022/04/21 10:57:17;;;;;;;87.32;54.60;;;19.10;53.40;;;;;;4932550;28;89711;-37
2022/04/21 11:00:22;;;;;;;86.10;54.67;;;19.10;53.30;;;;;;4940138;28;90441;-40
2022/04/21 11:02:59;;;;;;;88.32;55.00;;;19.10;53.30;;;;;;4944983;28;90792;-37
2022/04/21 11:05:27;;;;;;;85.85;54.22;;;19.20;53.30;;;;;;4936825;28;91326;-36
2022/04/21 11:07:58;;;;;;;90.00;54.80;;;19.20;53.40;;;;;;4939730;28;90192;-36
2022/04/21 11:10:27;;;;;;;92.78;54.85;;;19.20;53.40;;;;;;4938328;28;91368;-37
2022/04/21 11:12:53;;;;;;;87.47;54.40;;;19.20;53.40;;;;;;4946848;28;92175;-40
2022/04/21 11:15:45;;;;;;;86.13;54.50;;;19.20;53.30;;;;;;4943532;28;93278;-36
2022/04/21 11:18:30;;;;;;;87.85;54.35;;;19.30;53.30;;;;;;4943703;28;93304;-39
2022/04/21 11:21:26;;;;;;;86.43;54.10;;;19.30;53.30;;;;;;4940359;28;90687;-35
2022/04/21 11:23:52;;;;;;;87.97;54.42;;;19.30;53.30;;;;;;4936429;28;91015;-37
2022/04/21 11:26:25;;;;;;;87.40;54.75;;;19.30;53.20;;;;;;4923142;28;91455;-38
2022/04/21 11:28:51;;;;;;;88.60;54.70;;;19.30;53.20;;;;;;4933486;28;95286;-39
2022/04/21 11:31:20;;;;;;;87.50;54.55;;;19.40;53.30;;;;;;4929993;28;90699;-40
2022/04/21 11:33:46;;;;;;;89.75;54.92;;;19.40;53.50;;;;;;4939980;28;90574;-38
2022/04/21 11:36:14;;;;;;;88.22;54.63;;;19.40;53.60;;;;;;4926661;28;92174;-38
2022/04/21 11:38:44;;;;;;;89.80;54.45;;;19.40;53.70;;;;;;4930081;28;91408;-38
2022/04/21 11:41:12;;;;;;;90.15;54.33;;;19.50;53.80;;;;;;4928534;28;96354;-42
2022/04/21 11:43:45;;;;;;;86.15;54.28;;;19.50;53.80;;;;;;4930147;28;92102;-37
2022/04/21 11:46:12;;;;;;;87.65;54.35;;;19.50;53.70;;;;;;4934802;28;94750;-40
2022/04/21 11:48:40;;;;;;;88.13;54.22;;;19.50;53.50;;;;;;4943502;28;89544;-37
2022/04/21 11:51:10;;;;;;;87.20;54.17;;;19.50;53.20;;;;;;4930261;28;92837;-41
2022/04/21 11:53:40;;;;;;;89.22;54.08;;;19.60;53.60;;;;;;4932254;28;90187;-37
2022/04/21 11:56:07;;;;;;;87.43;54.13;;;19.60;52.60;;;;;;4935320;28;91442;-40
2022/04/21 11:58:38;;;;;;;84.97;54.10;;;19.60;52.30;;;;;;4937608;28;92008;-39
2022/04/21 12:06:39;;;;;;;84.65;53.72;;;19.60;51.30;;;;;;4924602;28;90251;-43
2022/04/21 12:09:14;;;;;;;85.30;53.80;;;19.60;51.20;;;;;;4930174;28;91977;-39
2022/04/21 12:11:51;;;;;;;86.18;53.78;;;19.70;51.00;;;;;;4921592;28;89723;-40
2022/04/21 12:14:17;;;;;;;86.38;53.63;;;19.70;50.70;;;;;;4934354;28;91136;-36
2022/04/21 12:16:53;;;;;;;86.78;53.58;;;19.70;50.40;;;;;;4928769;28;92996;-34
2022/04/21 12:19:39;;;;;;;87.93;53.60;;;19.70;50.00;;;;;;4934014;28;90135;-38
2022/04/21 12:22:09;;;;;;;85.07;53.92;;;19.70;49.70;;;;;;4929731;28;91830;-41
2022/04/21 12:24:39;;;;;;;87.00;53.47;;;19.70;49.50;;;;;;4935251;28;92868;-40
2022/04/21 12:27:20;;;;;;;84.68;53.85;;;19.70;49.40;;;;;;4933977;28;90956;-37
2022/04/21 12:29:57;;;;;;;86.13;53.90;;;19.70;49.40;;;;;;4934039;28;93288;-40
2022/04/21 12:32:23;;;;;;;86.28;53.80;;;19.80;49.10;;;;;;4936057;28;90327;-43
2022/04/21 12:34:49;;;;;;;85.75;53.78;;;19.70;49.20;;;;;;4939104;28;90400;-37
2022/04/21 12:37:22;;;;;;;84.35;54.22;;;19.80;49.20;;;;;;4932850;28;90444;-36
2022/04/21 12:39:49;;;;;;;86.95;53.85;;;19.80;49.20;;;;;;4921990;28;89887;-39
2022/04/21 12:42:15;;;;;;;90.30;53.47;;;19.80;49.10;;;;;;4927605;28;90985;-37
2022/04/21 12:44:43;;;;;;;88.13;53.83;;;19.80;49.00;;;;;;4927018;28;92279;-37
2022/04/21 12:47:18;;;;;;;88.35;54.20;;;19.80;48.70;;;;;;4935781;28;92457;-38
2022/04/21 12:50:09;;;;;;;86.60;53.80;;;19.90;48.70;;;;;;4933428;28;94508;-37
2022/04/21 12:52:48;;;;;;;86.75;53.85;;;19.90;48.70;;;;;;4932841;28;92291;-39
2022/04/21 12:55:19;;;;;;;85.43;53.65;;;19.90;48.80;;;;;;4934043;28;92070;-37
2022/04/21 12:58:17;;;;;;;;;;;19.90;48.90;;;;;;4933330;28;94218;-41
2022/04/21 13:00:46;;;;;;;87.20;53.55;;;19.90;48.80;;;;;;4940565;28;95792;-38
2022/04/21 13:03:14;;;;;;;83.50;53.45;;;19.90;48.90;;;;;;4936747;28;94203;-38
2022/04/21 13:05:51;;;;;;;84.93;53.25;;;20.00;49.00;;;;;;4940775;28;90349;-41
2022/04/21 13:08:24;;;;;;;86.65;53.83;;;20.00;49.30;;;;;;4933249;28;95296;-41
2022/04/21 13:10:52;;;;;;;86.15;53.75;;;20.00;49.30;;;;;;4928900;28;93782;-37
2022/04/21 13:13:18;;;;;;;86.68;53.83;;;20.00;49.20;;;;;;4942144;28;90025;-36
2022/04/21 13:15:45;;;;;;;84.57;53.50;;;20.00;49.20;;;;;;4934669;28;90968;-39
2022/04/21 13:18:12;;;;;;;86.05;53.67;;;20.10;49.30;;;;;;4935483;28;91492;-35
2022/04/21 13:23:24;;;;;;;83.50;53.53;;;20.10;49.40;;;;;;4922420;28;91746;-35
2022/04/21 13:25:49;;;;;;;84.43;53.72;;;20.10;49.50;;;;;;4936034;28;91607;-36